createdAt,value
2017-12-01T00:02:16.381Z,90.43
2017-12-01T00:04:45.529Z,90.66
2017-12-01T00:07:14.617Z,89.31
2017-12-01T00:09:44.660Z,88.53
2017-12-01T00:12:13.710Z,89.54
2017-12-01T00:14:50.524Z,89.91
2017-12-01T00:19:57.591Z,90.05
2017-12-01T00:22:26.747Z,91.13
2017-12-01T00:24:55.846Z,91.41
2017-12-01T00:27:24.909Z,91.34
2017-12-01T00:29:59.266Z,91.88
2017-12-01T00:32:28.402Z,92.43
2017-12-01T00:34:57.511Z,91.89
2017-12-01T00:37:26.537Z,93.36
2017-12-01T00:42:38.902Z,92.49
2017-12-01T00:45:07.949Z,92.01
2017-12-01T00:47:42.454Z,92.29
2017-12-01T00:50:11.511Z,92.59
2017-12-01T00:52:41.601Z,92.50
2017-12-01T00:55:10.654Z,92.94
2017-12-01T00:57:39.723Z,92.81
2017-12-01T01:00:08.778Z,92.82
2017-12-01T01:05:13.951Z,92.75
2017-12-01T01:07:44.920Z,93.13
2017-12-01T01:10:13.958Z,93.53
2017-12-01T01:15:18.770Z,93.60
2017-12-01T01:17:56.630Z,93.58
2017-12-01T01:20:37.488Z,93.52
2017-12-01T01:23:06.500Z,93.69
2017-12-01T01:25:37.471Z,93.41
2017-12-01T01:28:06.498Z,93.20
2017-12-01T01:30:35.547Z,93.37
2017-12-01T01:33:04.578Z,93.17
2017-12-01T01:38:11.772Z,91.82
2017-12-01T01:40:58.611Z,90.59
2017-12-01T01:43:27.662Z,89.96
2017-12-01T01:45:58.602Z,90.09
2017-12-01T01:51:04.772Z,91.19
2017-12-01T01:53:37.550Z,91.84
2017-12-01T01:56:06.611Z,91.97
2017-12-01T01:58:35.669Z,91.58
2017-12-01T02:01:04.714Z,91.29
2017-12-01T02:03:34.767Z,91.75
2017-12-01T02:06:03.809Z,91.92
2017-12-01T02:08:40.754Z,91.87
2017-12-01T02:11:09.809Z,92.51
2017-12-01T02:13:38.893Z,92.78
2017-12-01T02:16:07.939Z,92.92
2017-12-01T02:18:36.988Z,92.71
2017-12-01T02:21:06.046Z,92.90
2017-12-01T02:23:39.156Z,90.56
2017-12-01T02:26:08.198Z,90.84
2017-12-01T02:28:37.284Z,90.99
2017-12-01T02:31:06.330Z,90.68
2017-12-01T02:33:36.390Z,90.83
2017-12-01T02:36:05.453Z,90.29
2017-12-01T02:38:35.487Z,89.91
2017-12-01T02:41:04.533Z,90.61
2017-12-01T02:43:35.664Z,91.32
2017-12-01T02:46:04.675Z,91.65
2017-12-01T02:48:38.243Z,92.85
2017-12-01T02:51:07.287Z,93.89
2017-12-01T02:53:49.599Z,93.37
2017-12-01T02:56:28.571Z,93.10
2017-12-01T02:58:58.510Z,94.01
2017-12-01T03:01:35.328Z,93.40
2017-12-01T03:04:04.383Z,93.62
2017-12-01T03:06:33.458Z,93.68
2017-12-01T03:09:02.507Z,93.32
2017-12-01T03:11:33.465Z,93.14
2017-12-01T03:14:02.519Z,93.97
2017-12-01T03:16:35.582Z,94.27
2017-12-01T03:19:04.614Z,95.49
2017-12-01T03:24:11.803Z,94.05
2017-12-01T03:26:40.887Z,93.79
2017-12-01T03:29:09.966Z,94.28
2017-12-01T03:31:54.781Z,93.82
2017-12-01T03:34:24.849Z,94.21
2017-12-01T03:36:53.893Z,93.91
2017-12-01T03:39:22.938Z,94.54
2017-12-01T03:41:53.908Z,94.33
2017-12-01T03:44:26.664Z,93.61
2017-12-01T03:47:02.706Z,95.30
2017-12-01T03:49:31.715Z,94.95
2017-12-01T03:52:00.765Z,94.24
2017-12-01T03:54:29.879Z,93.82
2017-12-01T03:56:58.934Z,93.82
2017-12-01T03:59:27.978Z,93.73
2017-12-01T04:01:57.018Z,94.60
2017-12-01T04:04:26.215Z,95.09
2017-12-01T04:06:55.264Z,95.04
2017-12-01T04:09:24.312Z,94.82
2017-12-01T04:11:53.366Z,94.73
2017-12-01T04:14:22.411Z,94.92
2017-12-01T04:16:51.473Z,93.93
2017-12-01T04:19:20.510Z,93.75
2017-12-01T04:21:58.424Z,93.83
2017-12-01T04:24:33.459Z,93.79
2017-12-01T04:27:02.522Z,93.70
2017-12-01T04:29:31.569Z,93.55
2017-12-01T04:32:00.614Z,93.13
2017-12-01T04:34:29.670Z,93.14
2017-12-01T04:36:58.782Z,92.80
2017-12-01T04:39:29.786Z,93.05
2017-12-01T04:41:58.839Z,92.97
2017-12-01T04:44:27.890Z,93.59
2017-12-01T04:49:36.351Z,94.27
2017-12-01T04:52:06.289Z,94.06
2017-12-01T04:54:36.382Z,94.55
2017-12-01T04:57:05.423Z,94.72
2017-12-01T04:59:34.478Z,95.36
2017-12-01T05:02:03.522Z,95.41
2017-12-01T05:04:33.931Z,95.93
2017-12-01T05:07:51.742Z,95.69
2017-12-01T05:10:20.805Z,95.33
2017-12-01T05:12:49.877Z,95.24
2017-12-01T05:15:27.089Z,95.49
2017-12-01T05:17:56.147Z,95.64
2017-12-01T05:20:30.489Z,95.69
2017-12-01T05:22:59.554Z,95.53
2017-12-01T05:25:28.691Z,95.23
2017-12-01T05:27:57.762Z,94.74
2017-12-01T05:30:26.836Z,94.42
2017-12-01T05:33:03.774Z,94.58
2017-12-01T05:35:32.826Z,95.10
2017-12-01T05:38:03.807Z,95.48
2017-12-01T05:40:32.849Z,95.25
2017-12-01T05:43:12.074Z,95.39
2017-12-01T05:45:41.127Z,95.51
2017-12-01T05:48:10.223Z,94.89
2017-12-01T05:50:42.301Z,94.71
2017-12-01T05:53:11.357Z,94.92
2017-12-01T05:55:40.449Z,95.21
2017-12-01T05:58:09.502Z,95.05
2017-12-01T06:00:38.548Z,95.24
2017-12-01T06:03:18.445Z,94.67
2017-12-01T06:05:47.489Z,94.07
2017-12-01T06:08:17.591Z,94.17
2017-12-01T06:10:47.514Z,94.16
2017-12-01T06:13:25.918Z,94.21
2017-12-01T06:18:32.073Z,93.84
2017-12-01T06:21:03.150Z,93.63
2017-12-01T06:23:33.114Z,93.73
2017-12-01T06:26:04.220Z,93.96
2017-12-01T06:28:33.290Z,93.99
2017-12-01T06:31:02.313Z,94.06
2017-12-01T06:33:32.263Z,94.32
2017-12-01T06:36:13.168Z,94.19
2017-12-01T06:38:43.118Z,94.21
2017-12-01T06:41:21.798Z,94.58
2017-12-01T06:43:50.867Z,93.90
2017-12-01T06:46:19.918Z,93.07
2017-12-01T06:48:48.950Z,93.42
2017-12-01T06:51:18.006Z,93.45
2017-12-01T06:53:52.669Z,93.54
2017-12-01T06:56:21.807Z,93.46
2017-12-01T06:58:50.851Z,93.66
2017-12-01T07:01:19.919Z,93.67
2017-12-01T07:03:48.985Z,93.52
2017-12-01T07:11:39.719Z,92.90
2017-12-01T07:14:08.771Z,92.42
2017-12-01T07:16:37.814Z,92.43
2017-12-01T07:21:50.030Z,91.98
2017-12-01T07:24:20.074Z,92.07
2017-12-01T07:32:07.393Z,91.78
2017-12-01T07:34:36.504Z,91.38
2017-12-01T07:39:43.278Z,90.67
2017-12-01T07:42:13.470Z,90.61
2017-12-01T07:44:46.305Z,90.09
2017-12-01T07:47:15.360Z,89.84
2017-12-01T07:49:48.764Z,90.17
2017-12-01T07:52:27.839Z,88.87
2017-12-01T07:54:56.902Z,89.38
2017-12-01T07:57:33.004Z,89.63
2017-12-01T08:00:02.023Z,88.74
2017-12-01T08:02:31.086Z,89.15
2017-12-01T08:05:01.090Z,88.50
2017-12-01T08:07:30.940Z,88.70
2017-12-01T08:09:59.980Z,88.82
2017-12-01T08:12:29.054Z,89.09
2017-12-01T08:15:00.131Z,88.25
2017-12-01T08:17:31.820Z,88.69
2017-12-01T08:20:00.880Z,89.32
2017-12-01T08:22:48.659Z,89.21
2017-12-01T08:25:28.529Z,89.50
2017-12-01T08:27:57.588Z,90.07
2017-12-01T08:30:26.612Z,90.54
2017-12-01T08:35:42.981Z,89.69
2017-12-01T08:40:48.682Z,90.13
2017-12-01T08:43:17.745Z,90.33
2017-12-01T08:45:48.487Z,90.33
2017-12-01T08:48:17.525Z,90.08
2017-12-01T08:50:47.915Z,89.82
2017-12-01T08:53:17.910Z,89.93
2017-12-01T08:55:48.065Z,89.03
2017-12-01T08:58:21.650Z,89.49
2017-12-01T09:00:50.706Z,90.19
2017-12-01T09:03:25.191Z,89.90
2017-12-01T09:06:05.307Z,90.59
2017-12-01T09:08:34.342Z,90.76
2017-12-01T09:11:03.432Z,90.44
2017-12-01T09:13:32.458Z,90.93
2017-12-01T09:16:16.513Z,89.94
2017-12-01T09:21:23.855Z,89.47
2017-12-01T09:23:53.233Z,89.70
2017-12-01T09:26:22.278Z,89.66
2017-12-01T09:28:51.312Z,89.42
2017-12-01T09:31:22.293Z,88.84
2017-12-01T09:33:51.338Z,88.54
2017-12-01T09:36:29.596Z,88.78
2017-12-01T09:38:58.643Z,88.53
2017-12-01T09:41:27.685Z,88.65
2017-12-01T09:43:56.715Z,88.72
2017-12-01T09:46:35.969Z,88.04
2017-12-01T09:49:05.001Z,86.39
2017-12-01T09:51:34.023Z,87.15
2017-12-01T09:54:03.068Z,87.25
2017-12-01T09:59:08.599Z,86.29
2017-12-01T10:01:37.690Z,85.83
2017-12-01T10:04:06.714Z,86.11
2017-12-01T10:06:49.975Z,85.42
2017-12-01T10:09:20.932Z,85.45
2017-12-01T10:11:49.986Z,85.61
2017-12-01T10:14:19.034Z,85.11
2017-12-01T10:16:48.074Z,84.69
2017-12-01T10:19:24.774Z,85.00
2017-12-01T10:21:53.767Z,83.01
2017-12-01T10:26:58.489Z,81.27
2017-12-01T10:29:40.813Z,83.33
2017-12-01T10:32:09.849Z,82.45
2017-12-01T10:34:38.878Z,82.37
2017-12-01T10:37:07.923Z,80.45
2017-12-01T10:39:39.983Z,79.43
2017-12-01T10:42:09.005Z,79.15
2017-12-01T10:44:38.045Z,78.30
2017-12-01T10:47:07.122Z,79.52
2017-12-01T10:52:12.329Z,80.86
2017-12-01T10:57:19.545Z,79.48
2017-12-01T10:59:50.504Z,79.58
2017-12-01T11:02:19.539Z,78.85
2017-12-01T11:04:50.485Z,79.21
2017-12-01T11:07:26.830Z,77.39
2017-12-01T11:09:56.774Z,80.19
2017-12-01T11:12:25.842Z,79.95
2017-12-01T11:14:54.853Z,79.26
2017-12-01T11:17:24.025Z,79.14
2017-12-01T11:19:55.009Z,80.84
2017-12-01T11:22:24.960Z,79.54
2017-12-01T11:24:54.928Z,81.27
2017-12-01T11:27:25.910Z,80.61
2017-12-01T11:29:55.963Z,81.90
2017-12-01T11:32:25.058Z,79.91
2017-12-01T11:34:55.035Z,80.11
2017-12-01T11:37:24.074Z,77.98
2017-12-01T11:39:53.114Z,79.01
2017-12-01T11:42:22.149Z,80.25
2017-12-01T11:47:29.366Z,76.62
2017-12-01T11:49:58.624Z,78.97
2017-12-01T11:52:27.662Z,79.49
2017-12-01T11:54:56.697Z,77.16
2017-12-01T11:57:25.877Z,75.33
2017-12-01T11:59:56.029Z,75.90
2017-12-01T12:02:25.121Z,75.24
2017-12-01T12:04:55.285Z,76.99
2017-12-01T12:07:24.325Z,77.73
2017-12-01T12:09:55.349Z,76.43
2017-12-01T12:12:24.387Z,78.53
2017-12-01T12:14:53.451Z,73.54
2017-12-01T12:17:22.480Z,78.07
2017-12-01T12:19:56.913Z,77.32
2017-12-01T12:22:25.948Z,77.09
2017-12-01T12:24:55.029Z,76.76
2017-12-01T12:27:24.041Z,74.79
2017-12-01T12:29:58.355Z,76.43
2017-12-01T12:32:27.459Z,78.15
2017-12-01T12:34:56.550Z,78.60
2017-12-01T12:40:10.906Z,78.34
2017-12-01T12:42:41.303Z,78.87
2017-12-01T12:45:21.691Z,78.87
2017-12-01T12:47:50.722Z,78.59
2017-12-01T12:50:21.660Z,80.07
2017-12-01T12:53:13.569Z,80.77
2017-12-01T12:55:46.244Z,79.69
2017-12-01T12:58:21.171Z,80.27
2017-12-01T13:00:53.679Z,79.73
2017-12-01T13:03:23.879Z,77.73
2017-12-01T13:05:52.901Z,77.72
2017-12-01T13:08:21.950Z,79.64
2017-12-01T13:10:51.098Z,78.42
2017-12-01T13:13:20.126Z,79.27
2017-12-01T13:15:58.283Z,79.19
2017-12-01T13:18:27.403Z,79.53
2017-12-01T13:20:56.434Z,78.57
2017-12-01T13:23:25.476Z,79.42
2017-12-01T13:28:29.754Z,76.09
2017-12-01T13:31:21.506Z,79.12
2017-12-01T13:33:50.554Z,76.79
2017-12-01T13:36:19.593Z,78.90
2017-12-01T13:38:48.627Z,79.59
2017-12-01T13:41:21.998Z,78.75
2017-12-01T13:43:51.034Z,79.36
2017-12-01T13:46:21.986Z,78.96
2017-12-01T13:51:58.139Z,78.61
2017-12-01T13:54:27.190Z,79.48
2017-12-01T13:56:57.150Z,78.83
2017-12-01T13:59:26.199Z,80.20
2017-12-01T14:04:33.088Z,80.16
2017-12-01T14:07:11.004Z,79.77
2017-12-01T14:09:40.055Z,79.04
2017-12-01T14:12:21.850Z,78.15
2017-12-01T14:14:59.137Z,80.52
2017-12-01T14:17:28.186Z,80.02
2017-12-01T14:19:59.270Z,80.58
2017-12-01T14:22:28.325Z,79.49
2017-12-01T14:24:57.367Z,79.37
2017-12-01T14:27:26.408Z,79.31
2017-12-01T14:29:55.458Z,79.69
2017-12-01T14:32:24.512Z,79.83
2017-12-01T14:34:59.500Z,82.65
2017-12-01T14:37:29.563Z,82.80
2017-12-01T14:40:04.271Z,83.45
2017-12-01T14:42:33.418Z,83.84
2017-12-01T14:45:02.545Z,85.21
2017-12-01T14:47:31.597Z,84.76
2017-12-01T14:50:22.199Z,84.82
2017-12-01T14:52:51.300Z,85.62
2017-12-01T14:55:20.776Z,85.36
2017-12-01T14:57:49.994Z,86.64
2017-12-01T15:00:22.387Z,86.63
2017-12-01T15:05:34.066Z,85.86
2017-12-01T15:13:21.696Z,86.77
2017-12-01T15:18:27.957Z,87.04
2017-12-01T15:23:37.159Z,87.52
2017-12-01T15:26:12.021Z,87.65
2017-12-01T15:28:41.078Z,87.60
2017-12-01T15:33:48.326Z,87.89
2017-12-01T15:36:22.055Z,88.44
2017-12-01T15:38:58.234Z,88.48
2017-12-01T15:41:27.299Z,88.15
2017-12-01T15:43:56.350Z,88.21
2017-12-01T15:46:26.301Z,88.15
2017-12-01T15:48:55.342Z,89.45
2017-12-01T15:51:24.429Z,89.11
2017-12-01T15:53:55.478Z,89.02
2017-12-01T15:56:24.538Z,89.51
2017-12-01T16:01:40.872Z,89.07
2017-12-01T16:04:13.465Z,88.36
2017-12-01T16:09:23.167Z,87.99
2017-12-01T16:14:30.364Z,88.47
2017-12-01T16:17:10.559Z,89.83
2017-12-01T16:19:39.858Z,89.64
2017-12-01T16:24:48.130Z,90.51
2017-12-01T16:27:19.197Z,90.06
2017-12-01T16:30:11.927Z,90.15
2017-12-01T16:32:42.485Z,91.01
2017-12-01T16:35:11.152Z,90.75
2017-12-01T16:37:40.190Z,90.32
2017-12-01T16:40:09.250Z,91.21
2017-12-01T16:42:38.355Z,90.55
2017-12-01T16:45:07.441Z,91.29
2017-12-01T16:47:36.490Z,90.20
2017-12-01T16:50:05.560Z,90.81
2017-12-01T16:52:34.632Z,91.10
2017-12-01T16:55:03.682Z,90.79
2017-12-01T16:57:32.783Z,90.51
2017-12-01T17:00:01.866Z,90.61
2017-12-01T17:02:30.990Z,89.80
2017-12-01T17:05:00.079Z,89.51
2017-12-01T17:07:29.139Z,89.89
2017-12-01T17:09:58.194Z,90.16
2017-12-01T17:12:27.250Z,90.47
2017-12-01T17:14:58.215Z,90.50
2017-12-01T17:17:27.275Z,90.27
2017-12-01T17:22:33.478Z,90.30
2017-12-01T17:25:17.290Z,90.47
2017-12-01T17:30:23.469Z,90.08
2017-12-01T17:33:00.990Z,90.97
2017-12-01T17:35:30.108Z,91.06
2017-12-01T17:37:59.146Z,90.55
2017-12-01T17:40:28.318Z,91.13
2017-12-01T17:45:39.260Z,92.41
2017-12-01T17:48:08.287Z,91.97
2017-12-01T17:50:37.363Z,92.35
2017-12-01T17:56:00.374Z,92.08
2017-12-01T17:58:29.435Z,92.29
2017-12-01T18:01:13.945Z,92.05
2017-12-01T18:06:26.098Z,92.11
2017-12-01T18:09:03.929Z,91.90
2017-12-01T18:11:32.997Z,92.90
2017-12-01T18:16:52.195Z,92.15
2017-12-01T18:19:22.179Z,92.46
2017-12-01T18:21:59.869Z,92.66
2017-12-01T18:24:28.951Z,92.90
2017-12-01T18:29:42.642Z,92.20
2017-12-01T18:32:12.654Z,92.81
2017-12-01T18:34:41.724Z,92.79
2017-12-01T18:37:10.894Z,92.85
2017-12-01T18:39:39.942Z,93.28
2017-12-01T18:42:09.099Z,93.88
2017-12-01T18:47:17.301Z,93.91
2017-12-01T18:49:46.387Z,94.17
2017-12-01T18:54:59.156Z,92.99
2017-12-01T18:57:28.199Z,93.27
2017-12-01T18:59:57.270Z,92.78
2017-12-01T19:02:26.318Z,92.13
2017-12-01T19:04:55.380Z,92.11
2017-12-01T19:07:29.543Z,90.52
2017-12-01T19:09:58.589Z,89.21
2017-12-01T19:12:27.748Z,89.39
2017-12-01T19:14:56.873Z,89.18
2017-12-01T19:20:11.073Z,89.35
2017-12-01T19:22:43.790Z,89.62
2017-12-01T19:25:14.837Z,89.90
2017-12-01T19:27:44.801Z,89.67
2017-12-01T19:30:13.861Z,90.45
2017-12-01T19:32:43.878Z,90.26
2017-12-01T19:35:17.864Z,90.24
2017-12-01T19:37:47.850Z,90.36
2017-12-01T19:40:16.917Z,90.05
2017-12-01T19:42:46.067Z,90.26
2017-12-01T19:45:15.122Z,91.93
2017-12-01T19:47:44.185Z,92.05
2017-12-01T19:50:13.230Z,91.35
2017-12-01T19:52:42.289Z,91.99
2017-12-01T19:55:12.286Z,90.83
2017-12-01T19:57:42.563Z,90.55
2017-12-01T20:00:15.915Z,91.59
2017-12-01T20:02:45.377Z,91.32
2017-12-01T20:05:14.442Z,91.01
2017-12-01T20:07:44.397Z,91.06
2017-12-01T20:12:50.367Z,90.20
2017-12-01T20:15:23.102Z,90.67
2017-12-01T20:17:52.367Z,90.39
2017-12-01T20:20:24.775Z,90.57
2017-12-01T20:22:54.148Z,90.90
2017-12-01T20:28:01.715Z,90.34
2017-12-01T20:30:41.182Z,90.86
2017-12-01T20:33:12.751Z,90.74
2017-12-01T20:35:43.694Z,90.00
2017-12-01T20:38:12.802Z,90.21
2017-12-01T20:40:41.929Z,90.13
2017-12-01T20:43:12.423Z,89.57
2017-12-01T20:45:43.564Z,90.38
2017-12-01T20:48:12.657Z,90.36
2017-12-01T20:50:42.597Z,90.04
2017-12-01T20:53:38.359Z,90.30
2017-12-01T20:56:19.864Z,90.66
2017-12-01T20:58:49.459Z,91.55
2017-12-01T21:01:19.793Z,92.00
2017-12-01T21:03:49.046Z,92.54
2017-12-01T21:06:20.158Z,92.46
2017-12-01T21:08:49.209Z,92.17
2017-12-01T21:14:02.363Z,92.72
2017-12-01T21:16:43.169Z,92.87
2017-12-01T21:19:12.231Z,93.22
2017-12-01T21:21:43.179Z,93.61
2017-12-01T21:24:21.669Z,93.75
2017-12-01T21:26:50.719Z,93.78
2017-12-01T21:29:33.169Z,92.99
2017-12-01T21:32:02.222Z,93.34
2017-12-01T21:34:41.364Z,93.07
2017-12-01T21:37:19.730Z,93.62
2017-12-01T21:39:48.810Z,94.67
2017-12-01T21:42:19.759Z,95.09
2017-12-01T21:44:50.019Z,95.39
2017-12-01T21:49:54.425Z,94.63
2017-12-01T21:55:19.747Z,94.35
2017-12-01T21:57:48.863Z,93.67
2017-12-01T22:00:21.225Z,92.44
2017-12-01T22:02:50.297Z,91.99
2017-12-01T22:05:20.173Z,92.82
2017-12-01T22:10:28.147Z,91.58
2017-12-01T22:12:57.190Z,91.51
2017-12-01T22:15:26.249Z,91.93
2017-12-01T22:20:33.100Z,91.55
2017-12-01T22:23:02.167Z,91.98
2017-12-01T22:25:31.222Z,91.66
2017-12-01T22:28:04.846Z,91.51
2017-12-01T22:30:33.896Z,91.57
2017-12-01T22:33:06.442Z,91.27
2017-12-01T22:35:35.495Z,91.46
2017-12-01T22:38:04.542Z,91.48
2017-12-01T22:40:33.601Z,91.32
2017-12-01T22:43:02.677Z,91.64
2017-12-01T22:45:31.802Z,91.54
2017-12-01T22:48:00.855Z,91.32
2017-12-01T22:50:30.794Z,90.82
2017-12-01T22:52:59.842Z,91.72
2017-12-01T22:55:28.922Z,91.20
2017-12-01T22:58:00.909Z,90.93
2017-12-01T23:00:29.951Z,90.54
2017-12-01T23:03:00.006Z,90.59
2017-12-01T23:05:29.077Z,90.54
2017-12-01T23:07:58.212Z,90.36
2017-12-01T23:10:27.235Z,90.09
2017-12-01T23:12:58.195Z,90.53
2017-12-01T23:15:28.146Z,90.78
2017-12-01T23:17:57.213Z,90.40
2017-12-01T23:20:26.270Z,90.39
2017-12-01T23:25:36.523Z,90.83
2017-12-01T23:28:05.571Z,91.38
2017-12-01T23:30:34.634Z,90.88
2017-12-01T23:33:18.937Z,90.78
2017-12-01T23:38:24.505Z,90.80
2017-12-01T23:43:28.887Z,91.05
2017-12-01T23:45:58.959Z,91.55
2017-12-01T23:48:28.043Z,91.05
2017-12-01T23:53:32.278Z,90.63
2017-12-01T23:56:01.439Z,90.81
2017-12-01T23:58:30.534Z,90.60
